sensor_id;sensor_type;location;lat;lon;timestamp;P1;durP1;ratioP1;P2;durP2;ratioP2
2522;SDS011;1272;53.332;9.860;2024-02-26T00:01:40;5.53;;;5.03;;
2522;SDS011;1272;53.332;9.860;2024-02-26T00:04:06;6.77;;;5.90;;
2522;SDS011;1272;53.332;9.860;2024-02-26T00:06:32;5.87;;;4.87;;
2522;SDS011;1272;53.332;9.860;2024-02-26T00:08:57;5.83;;;5.33;;
2522;SDS011;1272;53.332;9.860;2024-02-26T00:11:23;5.07;;;4.60;;
2522;SDS011;1272;53.332;9.860;2024-02-26T00:13:49;7.67;;;5.57;;
2522;SDS011;1272;53.332;9.860;2024-02-26T00:16:14;5.53;;;5.03;;
2522;SDS011;1272;53.332;9.860;2024-02-26T00:18:41;6.23;;;5.63;;
2522;SDS011;1272;53.332;9.860;2024-02-26T00:21:07;5.67;;;5.17;;
2522;SDS011;1272;53.332;9.860;2024-02-26T00:23:33;5.67;;;5.17;;
2522;SDS011;1272;53.332;9.860;2024-02-26T00:25:58;5.43;;;4.80;;
2522;SDS011;1272;53.332;9.860;2024-02-26T00:28:24;6.70;;;5.57;;
2522;SDS011;1272;53.332;9.860;2024-02-26T00:30:50;5.30;;;4.80;;
2522;SDS011;1272;53.332;9.860;2024-02-26T00:33:20;5.30;;;4.73;;
2522;SDS011;1272;53.332;9.860;2024-02-26T00:35:46;5.93;;;5.37;;
2522;SDS011;1272;53.332;9.860;2024-02-26T00:38:12;5.40;;;4.80;;
2522;SDS011;1272;53.332;9.860;2024-02-26T00:40:38;7.27;;;4.93;;
2522;SDS011;1272;53.332;9.860;2024-02-26T00:43:04;5.20;;;4.70;;
2522;SDS011;1272;53.332;9.860;2024-02-26T00:45:30;4.73;;;4.23;;
2522;SDS011;1272;53.332;9.860;2024-02-26T00:47:57;5.30;;;4.80;;
2522;SDS011;1272;53.332;9.860;2024-02-26T00:50:23;5.93;;;5.40;;
2522;SDS011;1272;53.332;9.860;2024-02-26T00:52:48;4.53;;;4.20;;
2522;SDS011;1272;53.332;9.860;2024-02-26T00:55:14;5.70;;;4.93;;
2522;SDS011;1272;53.332;9.860;2024-02-26T00:57:40;6.00;;;4.70;;
2522;SDS011;1272;53.332;9.860;2024-02-26T01:00:06;5.80;;;4.27;;
2522;SDS011;1272;53.332;9.860;2024-02-26T01:02:35;4.40;;;4.10;;
2522;SDS011;1272;53.332;9.860;2024-02-26T01:05:01;4.83;;;4.43;;
2522;SDS011;1272;53.332;9.860;2024-02-26T01:07:27;4.80;;;4.50;;
2522;SDS011;1272;53.332;9.860;2024-02-26T01:09:53;6.50;;;4.60;;
2522;SDS011;1272;53.332;9.860;2024-02-26T01:12:19;5.03;;;4.57;;
2522;SDS011;1272;53.332;9.860;2024-02-26T01:14:44;5.90;;;4.83;;
2522;SDS011;1272;53.332;9.860;2024-02-26T01:17:10;4.53;;;4.20;;
2522;SDS011;1272;53.332;9.860;2024-02-26T01:19:36;4.97;;;3.93;;
2522;SDS011;1272;53.332;9.860;2024-02-26T01:22:01;5.30;;;4.80;;
2522;SDS011;1272;53.332;9.860;2024-02-26T01:24:27;4.90;;;4.23;;
2522;SDS011;1272;53.332;9.860;2024-02-26T01:26:54;5.20;;;4.70;;
2522;SDS011;1272;53.332;9.860;2024-02-26T01:29:19;4.50;;;3.87;;
2522;SDS011;1272;53.332;9.860;2024-02-26T01:31:45;5.67;;;5.00;;
2522;SDS011;1272;53.332;9.860;2024-02-26T01:34:10;5.83;;;5.03;;
2522;SDS011;1272;53.332;9.860;2024-02-26T01:36:36;4.10;;;3.70;;
2522;SDS011;1272;53.332;9.860;2024-02-26T01:39:02;5.37;;;4.30;;
2522;SDS011;1272;53.332;9.860;2024-02-26T01:41:28;4.07;;;3.83;;
2522;SDS011;1272;53.332;9.860;2024-02-26T01:43:54;4.67;;;4.37;;
2522;SDS011;1272;53.332;9.860;2024-02-26T01:46:19;4.43;;;4.03;;
2522;SDS011;1272;53.332;9.860;2024-02-26T01:48:46;4.83;;;4.07;;
2522;SDS011;1272;53.332;9.860;2024-02-26T01:51:14;4.93;;;4.00;;
2522;SDS011;1272;53.332;9.860;2024-02-26T01:53:42;3.80;;;3.60;;
2522;SDS011;1272;53.332;9.860;2024-02-26T01:56:08;4.87;;;4.43;;
2522;SDS011;1272;53.332;9.860;2024-02-26T01:58:34;4.20;;;3.73;;
2522;SDS011;1272;53.332;9.860;2024-02-26T02:01:01;4.90;;;4.40;;
2522;SDS011;1272;53.332;9.860;2024-02-26T02:03:27;4.27;;;3.87;;
2522;SDS011;1272;53.332;9.860;2024-02-26T02:05:54;5.20;;;4.70;;
2522;SDS011;1272;53.332;9.860;2024-02-26T02:08:20;5.30;;;3.80;;
2522;SDS011;1272;53.332;9.860;2024-02-26T02:10:48;5.87;;;4.27;;
2522;SDS011;1272;53.332;9.860;2024-02-26T02:13:15;4.77;;;4.20;;
2522;SDS011;1272;53.332;9.860;2024-02-26T02:15:41;4.53;;;4.07;;
2522;SDS011;1272;53.332;9.860;2024-02-26T02:18:07;4.03;;;3.63;;
2522;SDS011;1272;53.332;9.860;2024-02-26T02:20:33;4.73;;;4.07;;
2522;SDS011;1272;53.332;9.860;2024-02-26T02:22:59;4.37;;;3.67;;
2522;SDS011;1272;53.332;9.860;2024-02-26T02:25:25;4.43;;;4.13;;
2522;SDS011;1272;53.332;9.860;2024-02-26T02:27:51;4.40;;;4.00;;
2522;SDS011;1272;53.332;9.860;2024-02-26T02:30:21;5.60;;;4.73;;
2522;SDS011;1272;53.332;9.860;2024-02-26T02:32:50;6.57;;;5.47;;
2522;SDS011;1272;53.332;9.860;2024-02-26T02:35:16;4.70;;;4.30;;
2522;SDS011;1272;53.332;9.860;2024-02-26T02:37:42;6.63;;;4.40;;
2522;SDS011;1272;53.332;9.860;2024-02-26T02:40:08;5.83;;;4.40;;
2522;SDS011;1272;53.332;9.860;2024-02-26T02:42:33;4.73;;;4.30;;
2522;SDS011;1272;53.332;9.860;2024-02-26T02:44:59;4.87;;;4.10;;
2522;SDS011;1272;53.332;9.860;2024-02-26T02:47:25;4.97;;;4.47;;
2522;SDS011;1272;53.332;9.860;2024-02-26T02:49:50;4.63;;;4.23;;
2522;SDS011;1272;53.332;9.860;2024-02-26T02:52:16;4.07;;;3.77;;
2522;SDS011;1272;53.332;9.860;2024-02-26T02:54:42;4.40;;;4.07;;
2522;SDS011;1272;53.332;9.860;2024-02-26T02:57:08;5.57;;;4.57;;
2522;SDS011;1272;53.332;9.860;2024-02-26T02:59:34;7.27;;;4.40;;
2522;SDS011;1272;53.332;9.860;2024-02-26T03:02:00;5.20;;;4.60;;
2522;SDS011;1272;53.332;9.860;2024-02-26T03:04:26;4.87;;;4.40;;
2522;SDS011;1272;53.332;9.860;2024-02-26T03:06:52;4.60;;;4.17;;
2522;SDS011;1272;53.332;9.860;2024-02-26T03:09:18;6.23;;;4.60;;
2522;SDS011;1272;53.332;9.860;2024-02-26T03:11:43;4.70;;;4.23;;
2522;SDS011;1272;53.332;9.860;2024-02-26T03:14:09;4.70;;;4.40;;
2522;SDS011;1272;53.332;9.860;2024-02-26T03:16:35;3.93;;;3.63;;
2522;SDS011;1272;53.332;9.860;2024-02-26T03:19:01;4.60;;;4.20;;
2522;SDS011;1272;53.332;9.860;2024-02-26T03:21:28;6.10;;;4.40;;
2522;SDS011;1272;53.332;9.860;2024-02-26T03:23:54;7.20;;;4.87;;
2522;SDS011;1272;53.332;9.860;2024-02-26T03:26:20;5.20;;;4.73;;
2522;SDS011;1272;53.332;9.860;2024-02-26T03:28:46;5.50;;;4.20;;
2522;SDS011;1272;53.332;9.860;2024-02-26T03:31:12;5.00;;;4.50;;
2522;SDS011;1272;53.332;9.860;2024-02-26T03:33:38;4.40;;;4.10;;
2522;SDS011;1272;53.332;9.860;2024-02-26T03:36:04;5.57;;;4.70;;
2522;SDS011;1272;53.332;9.860;2024-02-26T03:38:30;4.40;;;3.93;;
2522;SDS011;1272;53.332;9.860;2024-02-26T03:40:55;4.57;;;3.87;;
2522;SDS011;1272;53.332;9.860;2024-02-26T03:43:21;4.03;;;3.70;;
2522;SDS011;1272;53.332;9.860;2024-02-26T03:45:47;7.03;;;4.40;;
2522;SDS011;1272;53.332;9.860;2024-02-26T03:48:12;5.33;;;4.37;;
2522;SDS011;1272;53.332;9.860;2024-02-26T03:50:38;4.73;;;4.23;;
2522;SDS011;1272;53.332;9.860;2024-02-26T03:53:04;5.97;;;3.83;;
2522;SDS011;1272;53.332;9.860;2024-02-26T03:55:30;6.10;;;5.50;;
2522;SDS011;1272;53.332;9.860;2024-02-26T03:57:55;4.87;;;4.37;;
2522;SDS011;1272;53.332;9.860;2024-02-26T04:00:21;5.50;;;4.33;;
2522;SDS011;1272;53.332;9.860;2024-02-26T04:02:47;7.93;;;4.63;;
2522;SDS011;1272;53.332;9.860;2024-02-26T04:05:13;7.27;;;5.07;;
2522;SDS011;1272;53.332;9.860;2024-02-26T04:07:42;8.63;;;5.80;;
2522;SDS011;1272;53.332;9.860;2024-02-26T04:10:10;5.70;;;4.60;;
2522;SDS011;1272;53.332;9.860;2024-02-26T04:12:39;6.67;;;4.70;;
2522;SDS011;1272;53.332;9.860;2024-02-26T04:15:06;6.47;;;4.33;;
2522;SDS011;1272;53.332;9.860;2024-02-26T04:17:33;8.67;;;5.33;;
2522;SDS011;1272;53.332;9.860;2024-02-26T04:19:59;7.97;;;5.73;;
2522;SDS011;1272;53.332;9.860;2024-02-26T04:22:24;8.20;;;4.90;;
2522;SDS011;1272;53.332;9.860;2024-02-26T04:24:50;11.73;;;6.40;;
2522;SDS011;1272;53.332;9.860;2024-02-26T04:27:16;5.77;;;4.67;;
2522;SDS011;1272;53.332;9.860;2024-02-26T04:29:41;6.90;;;5.97;;
2522;SDS011;1272;53.332;9.860;2024-02-26T04:32:07;6.97;;;5.83;;
2522;SDS011;1272;53.332;9.860;2024-02-26T04:34:33;9.20;;;5.17;;
2522;SDS011;1272;53.332;9.860;2024-02-26T04:36:58;8.67;;;5.43;;
2522;SDS011;1272;53.332;9.860;2024-02-26T04:39:24;7.63;;;5.40;;
2522;SDS011;1272;53.332;9.860;2024-02-26T04:41:51;7.40;;;5.63;;
2522;SDS011;1272;53.332;9.860;2024-02-26T04:44:16;7.43;;;5.67;;
2522;SDS011;1272;53.332;9.860;2024-02-26T04:46:42;7.17;;;5.43;;
2522;SDS011;1272;53.332;9.860;2024-02-26T04:49:08;7.60;;;5.70;;
2522;SDS011;1272;53.332;9.860;2024-02-26T04:51:34;7.33;;;5.63;;
2522;SDS011;1272;53.332;9.860;2024-02-26T04:54:00;6.27;;;5.27;;
2522;SDS011;1272;53.332;9.860;2024-02-26T04:56:25;5.83;;;5.23;;
2522;SDS011;1272;53.332;9.860;2024-02-26T04:58:51;7.53;;;5.13;;
2522;SDS011;1272;53.332;9.860;2024-02-26T05:01:17;7.23;;;5.70;;
2522;SDS011;1272;53.332;9.860;2024-02-26T05:03:43;7.03;;;5.57;;
2522;SDS011;1272;53.332;9.860;2024-02-26T05:06:09;9.10;;;5.63;;
2522;SDS011;1272;53.332;9.860;2024-02-26T05:08:35;5.93;;;4.40;;
2522;SDS011;1272;53.332;9.860;2024-02-26T05:11:04;8.67;;;5.73;;
2522;SDS011;1272;53.332;9.860;2024-02-26T05:13:30;6.30;;;5.50;;
2522;SDS011;1272;53.332;9.860;2024-02-26T05:15:56;6.03;;;5.20;;
2522;SDS011;1272;53.332;9.860;2024-02-26T05:18:22;5.40;;;4.90;;
2522;SDS011;1272;53.332;9.860;2024-02-26T05:20:48;8.43;;;5.13;;
2522;SDS011;1272;53.332;9.860;2024-02-26T05:23:13;10.70;;;6.17;;
2522;SDS011;1272;53.332;9.860;2024-02-26T05:25:39;5.30;;;4.57;;
2522;SDS011;1272;53.332;9.860;2024-02-26T05:28:06;8.23;;;5.07;;
2522;SDS011;1272;53.332;9.860;2024-02-26T05:30:32;9.43;;;6.53;;
2522;SDS011;1272;53.332;9.860;2024-02-26T05:32:57;7.23;;;4.97;;
2522;SDS011;1272;53.332;9.860;2024-02-26T05:35:24;6.80;;;5.60;;
2522;SDS011;1272;53.332;9.860;2024-02-26T05:37:50;7.50;;;5.37;;
2522;SDS011;1272;53.332;9.860;2024-02-26T05:40:16;8.10;;;6.30;;
2522;SDS011;1272;53.332;9.860;2024-02-26T05:42:42;9.87;;;5.90;;
2522;SDS011;1272;53.332;9.860;2024-02-26T05:45:10;6.00;;;5.13;;
2522;SDS011;1272;53.332;9.860;2024-02-26T05:47:35;8.50;;;6.17;;
2522;SDS011;1272;53.332;9.860;2024-02-26T05:50:07;7.37;;;5.53;;
2522;SDS011;1272;53.332;9.860;2024-02-26T05:52:35;8.20;;;6.50;;
2522;SDS011;1272;53.332;9.860;2024-02-26T05:55:02;5.93;;;5.40;;
2522;SDS011;1272;53.332;9.860;2024-02-26T05:57:28;7.03;;;6.17;;
2522;SDS011;1272;53.332;9.860;2024-02-26T05:59:54;8.90;;;6.30;;
2522;SDS011;1272;53.332;9.860;2024-02-26T06:02:19;9.63;;;6.33;;
2522;SDS011;1272;53.332;9.860;2024-02-26T06:04:45;7.37;;;5.80;;
2522;SDS011;1272;53.332;9.860;2024-02-26T06:07:12;7.23;;;6.43;;
2522;SDS011;1272;53.332;9.860;2024-02-26T06:09:37;10.40;;;6.80;;
2522;SDS011;1272;53.332;9.860;2024-02-26T06:12:04;7.83;;;6.20;;
2522;SDS011;1272;53.332;9.860;2024-02-26T06:14:30;8.10;;;7.13;;
2522;SDS011;1272;53.332;9.860;2024-02-26T06:16:56;8.40;;;6.77;;
2522;SDS011;1272;53.332;9.860;2024-02-26T06:19:21;9.40;;;6.70;;
2522;SDS011;1272;53.332;9.860;2024-02-26T06:21:47;8.40;;;5.83;;
2522;SDS011;1272;53.332;9.860;2024-02-26T06:24:13;6.37;;;5.43;;
2522;SDS011;1272;53.332;9.860;2024-02-26T06:26:38;7.60;;;5.97;;
2522;SDS011;1272;53.332;9.860;2024-02-26T06:29:04;8.63;;;5.90;;
2522;SDS011;1272;53.332;9.860;2024-02-26T06:31:30;8.70;;;6.43;;
2522;SDS011;1272;53.332;9.860;2024-02-26T06:33:55;8.10;;;6.20;;
2522;SDS011;1272;53.332;9.860;2024-02-26T06:36:21;9.67;;;5.53;;
2522;SDS011;1272;53.332;9.860;2024-02-26T06:38:47;7.50;;;6.80;;
2522;SDS011;1272;53.332;9.860;2024-02-26T06:41:14;8.37;;;6.13;;
2522;SDS011;1272;53.332;9.860;2024-02-26T06:43:39;7.73;;;6.50;;
2522;SDS011;1272;53.332;9.860;2024-02-26T06:46:05;9.37;;;6.50;;
2522;SDS011;1272;53.332;9.860;2024-02-26T06:48:32;10.03;;;7.67;;
2522;SDS011;1272;53.332;9.860;2024-02-26T06:50:57;9.17;;;7.03;;
2522;SDS011;1272;53.332;9.860;2024-02-26T06:53:23;9.57;;;6.73;;
2522;SDS011;1272;53.332;9.860;2024-02-26T06:55:49;12.20;;;7.23;;
2522;SDS011;1272;53.332;9.860;2024-02-26T06:58:15;10.10;;;6.60;;
2522;SDS011;1272;53.332;9.860;2024-02-26T07:00:41;8.50;;;6.27;;
2522;SDS011;1272;53.332;9.860;2024-02-26T07:03:07;8.60;;;6.70;;
2522;SDS011;1272;53.332;9.860;2024-02-26T07:05:33;7.10;;;6.40;;
2522;SDS011;1272;53.332;9.860;2024-02-26T07:07:59;9.43;;;6.57;;
2522;SDS011;1272;53.332;9.860;2024-02-26T07:10:25;10.23;;;7.03;;
2522;SDS011;1272;53.332;9.860;2024-02-26T07:12:50;10.43;;;7.03;;
2522;SDS011;1272;53.332;9.860;2024-02-26T07:15:18;8.33;;;7.43;;
2522;SDS011;1272;53.332;9.860;2024-02-26T07:17:44;9.10;;;7.00;;
2522;SDS011;1272;53.332;9.860;2024-02-26T07:20:12;10.83;;;8.07;;
2522;SDS011;1272;53.332;9.860;2024-02-26T07:22:39;8.93;;;7.13;;
2522;SDS011;1272;53.332;9.860;2024-02-26T07:25:05;11.37;;;8.37;;
2522;SDS011;1272;53.332;9.860;2024-02-26T07:27:33;10.63;;;8.10;;
2522;SDS011;1272;53.332;9.860;2024-02-26T07:29:58;10.27;;;7.53;;
2522;SDS011;1272;53.332;9.860;2024-02-26T07:32:24;10.27;;;7.33;;
2522;SDS011;1272;53.332;9.860;2024-02-26T07:34:50;8.10;;;6.87;;
2522;SDS011;1272;53.332;9.860;2024-02-26T07:37:15;9.90;;;6.80;;
2522;SDS011;1272;53.332;9.860;2024-02-26T07:39:41;9.00;;;7.20;;
2522;SDS011;1272;53.332;9.860;2024-02-26T07:42:06;7.63;;;5.97;;
2522;SDS011;1272;53.332;9.860;2024-02-26T07:44:32;9.97;;;6.37;;
2522;SDS011;1272;53.332;9.860;2024-02-26T07:46:58;8.50;;;6.20;;
2522;SDS011;1272;53.332;9.860;2024-02-26T07:49:24;10.77;;;8.20;;
2522;SDS011;1272;53.332;9.860;2024-02-26T07:51:50;7.33;;;6.30;;
2522;SDS011;1272;53.332;9.860;2024-02-26T07:54:16;9.80;;;6.70;;
2522;SDS011;1272;53.332;9.860;2024-02-26T07:56:44;8.90;;;6.87;;
2522;SDS011;1272;53.332;9.860;2024-02-26T07:59:09;7.40;;;6.53;;
2522;SDS011;1272;53.332;9.860;2024-02-26T08:01:35;10.63;;;7.67;;
2522;SDS011;1272;53.332;9.860;2024-02-26T08:04:04;8.37;;;6.50;;
2522;SDS011;1272;53.332;9.860;2024-02-26T08:06:30;8.80;;;7.33;;
2522;SDS011;1272;53.332;9.860;2024-02-26T08:08:55;11.10;;;6.07;;
2522;SDS011;1272;53.332;9.860;2024-02-26T08:11:21;10.67;;;6.73;;
2522;SDS011;1272;53.332;9.860;2024-02-26T08:13:47;9.07;;;6.87;;
2522;SDS011;1272;53.332;9.860;2024-02-26T08:16:12;7.03;;;6.17;;
2522;SDS011;1272;53.332;9.860;2024-02-26T08:18:38;11.40;;;8.00;;
2522;SDS011;1272;53.332;9.860;2024-02-26T08:21:04;9.40;;;6.63;;
2522;SDS011;1272;53.332;9.860;2024-02-26T08:23:30;10.53;;;6.20;;
2522;SDS011;1272;53.332;9.860;2024-02-26T08:25:56;9.37;;;7.07;;
2522;SDS011;1272;53.332;9.860;2024-02-26T08:28:22;7.03;;;6.07;;
2522;SDS011;1272;53.332;9.860;2024-02-26T08:30:48;9.03;;;6.40;;
2522;SDS011;1272;53.332;9.860;2024-02-26T08:33:13;12.73;;;7.10;;
2522;SDS011;1272;53.332;9.860;2024-02-26T08:35:40;10.03;;;6.57;;
2522;SDS011;1272;53.332;9.860;2024-02-26T08:38:06;7.90;;;6.20;;
2522;SDS011;1272;53.332;9.860;2024-02-26T08:40:32;7.13;;;6.40;;
2522;SDS011;1272;53.332;9.860;2024-02-26T08:42:57;8.00;;;6.07;;
2522;SDS011;1272;53.332;9.860;2024-02-26T08:45:23;8.17;;;6.03;;
2522;SDS011;1272;53.332;9.860;2024-02-26T08:47:49;5.90;;;5.23;;
2522;SDS011;1272;53.332;9.860;2024-02-26T08:50:15;7.00;;;5.70;;
2522;SDS011;1272;53.332;9.860;2024-02-26T08:52:40;6.90;;;5.10;;
2522;SDS011;1272;53.332;9.860;2024-02-26T08:55:06;8.60;;;6.00;;
2522;SDS011;1272;53.332;9.860;2024-02-26T08:57:34;7.27;;;5.63;;
2522;SDS011;1272;53.332;9.860;2024-02-26T09:00:00;13.67;;;6.47;;
2522;SDS011;1272;53.332;9.860;2024-02-26T09:02:26;9.47;;;7.00;;
2522;SDS011;1272;53.332;9.860;2024-02-26T09:04:52;8.50;;;6.40;;
2522;SDS011;1272;53.332;9.860;2024-02-26T09:07:20;9.67;;;6.90;;
2522;SDS011;1272;53.332;9.860;2024-02-26T09:09:46;10.40;;;7.13;;
2522;SDS011;1272;53.332;9.860;2024-02-26T09:12:11;9.17;;;7.47;;
2522;SDS011;1272;53.332;9.860;2024-02-26T09:14:37;10.37;;;7.67;;
2522;SDS011;1272;53.332;9.860;2024-02-26T09:17:03;8.57;;;7.10;;
2522;SDS011;1272;53.332;9.860;2024-02-26T09:19:29;7.60;;;6.20;;
2522;SDS011;1272;53.332;9.860;2024-02-26T09:21:54;10.60;;;6.20;;
2522;SDS011;1272;53.332;9.860;2024-02-26T09:24:22;7.57;;;6.57;;
2522;SDS011;1272;53.332;9.860;2024-02-26T09:26:49;7.33;;;6.30;;
2522;SDS011;1272;53.332;9.860;2024-02-26T09:29:15;7.07;;;5.60;;
2522;SDS011;1272;53.332;9.860;2024-02-26T09:31:40;7.20;;;6.50;;
2522;SDS011;1272;53.332;9.860;2024-02-26T09:34:06;6.40;;;5.70;;
2522;SDS011;1272;53.332;9.860;2024-02-26T09:36:33;7.80;;;5.50;;
2522;SDS011;1272;53.332;9.860;2024-02-26T09:38:59;7.37;;;5.73;;
2522;SDS011;1272;53.332;9.860;2024-02-26T09:41:26;6.60;;;6.00;;
2522;SDS011;1272;53.332;9.860;2024-02-26T09:43:55;7.40;;;5.97;;
2522;SDS011;1272;53.332;9.860;2024-02-26T09:46:22;6.70;;;6.07;;
2522;SDS011;1272;53.332;9.860;2024-02-26T09:48:50;6.97;;;5.50;;
2522;SDS011;1272;53.332;9.860;2024-02-26T09:51:16;6.00;;;5.20;;
2522;SDS011;1272;53.332;9.860;2024-02-26T09:53:43;7.73;;;5.53;;
2522;SDS011;1272;53.332;9.860;2024-02-26T09:56:11;8.40;;;6.80;;
2522;SDS011;1272;53.332;9.860;2024-02-26T09:58:38;6.60;;;5.87;;
2522;SDS011;1272;53.332;9.860;2024-02-26T10:01:05;6.23;;;5.13;;
2522;SDS011;1272;53.332;9.860;2024-02-26T10:03:39;6.20;;;5.53;;
2522;SDS011;1272;53.332;9.860;2024-02-26T10:06:13;10.37;;;5.83;;
2522;SDS011;1272;53.332;9.860;2024-02-26T10:08:38;12.10;;;6.20;;
2522;SDS011;1272;53.332;9.860;2024-02-26T10:11:05;8.10;;;5.87;;
2522;SDS011;1272;53.332;9.860;2024-02-26T10:13:33;7.60;;;5.70;;
2522;SDS011;1272;53.332;9.860;2024-02-26T10:16:00;5.80;;;5.30;;
2522;SDS011;1272;53.332;9.860;2024-02-26T10:18:44;6.13;;;5.53;;
2522;SDS011;1272;53.332;9.860;2024-02-26T10:21:15;7.00;;;5.67;;
2522;SDS011;1272;53.332;9.860;2024-02-26T10:23:43;7.23;;;5.80;;
2522;SDS011;1272;53.332;9.860;2024-02-26T10:26:10;7.63;;;5.80;;
2522;SDS011;1272;53.332;9.860;2024-02-26T10:28:37;7.53;;;5.70;;
2522;SDS011;1272;53.332;9.860;2024-02-26T10:31:04;7.83;;;5.93;;
2522;SDS011;1272;53.332;9.860;2024-02-26T10:33:31;7.30;;;5.50;;
2522;SDS011;1272;53.332;9.860;2024-02-26T10:36:00;4.90;;;4.50;;
2522;SDS011;1272;53.332;9.860;2024-02-26T10:38:26;5.83;;;5.33;;
2522;SDS011;1272;53.332;9.860;2024-02-26T10:40:52;5.77;;;5.30;;
2522;SDS011;1272;53.332;9.860;2024-02-26T10:43:17;5.43;;;4.97;;
2522;SDS011;1272;53.332;9.860;2024-02-26T10:45:43;6.63;;;5.93;;
2522;SDS011;1272;53.332;9.860;2024-02-26T10:48:10;7.57;;;5.93;;
2522;SDS011;1272;53.332;9.860;2024-02-26T10:50:38;6.10;;;5.10;;
2522;SDS011;1272;53.332;9.860;2024-02-26T10:53:05;7.20;;;5.50;;
2522;SDS011;1272;53.332;9.860;2024-02-26T10:55:40;5.50;;;5.00;;
2522;SDS011;1272;53.332;9.860;2024-02-26T10:58:06;5.20;;;4.70;;
2522;SDS011;1272;53.332;9.860;2024-02-26T11:00:35;8.23;;;5.60;;
2522;SDS011;1272;53.332;9.860;2024-02-26T11:03:03;5.60;;;5.10;;
2522;SDS011;1272;53.332;9.860;2024-02-26T11:05:30;6.37;;;5.67;;
2522;SDS011;1272;53.332;9.860;2024-02-26T11:07:58;6.47;;;5.77;;
2522;SDS011;1272;53.332;9.860;2024-02-26T11:10:26;5.20;;;4.70;;
2522;SDS011;1272;53.332;9.860;2024-02-26T11:12:55;6.77;;;4.80;;
2522;SDS011;1272;53.332;9.860;2024-02-26T11:15:23;5.50;;;4.97;;
2522;SDS011;1272;53.332;9.860;2024-02-26T11:17:49;6.00;;;5.00;;
2522;SDS011;1272;53.332;9.860;2024-02-26T11:20:17;5.63;;;4.90;;
2522;SDS011;1272;53.332;9.860;2024-02-26T11:22:45;5.20;;;4.77;;
2522;SDS011;1272;53.332;9.860;2024-02-26T11:25:11;4.90;;;4.50;;
2522;SDS011;1272;53.332;9.860;2024-02-26T11:27:43;5.63;;;5.13;;
2522;SDS011;1272;53.332;9.860;2024-02-26T11:30:13;6.37;;;4.40;;
2522;SDS011;1272;53.332;9.860;2024-02-26T11:32:43;5.07;;;4.63;;
2522;SDS011;1272;53.332;9.860;2024-02-26T11:35:10;5.43;;;4.60;;
2522;SDS011;1272;53.332;9.860;2024-02-26T11:37:40;6.03;;;5.53;;
2522;SDS011;1272;53.332;9.860;2024-02-26T11:40:09;5.37;;;4.87;;
2522;SDS011;1272;53.332;9.860;2024-02-26T11:42:42;5.53;;;5.03;;
2522;SDS011;1272;53.332;9.860;2024-02-26T11:48:20;7.10;;;4.40;;
2522;SDS011;1272;53.332;9.860;2024-02-26T11:50:47;6.47;;;5.00;;
2522;SDS011;1272;53.332;9.860;2024-02-26T11:53:27;5.67;;;5.27;;
2522;SDS011;1272;53.332;9.860;2024-02-26T11:58:47;8.07;;;5.17;;
2522;SDS011;1272;53.332;9.860;2024-02-26T12:04:16;5.77;;;5.23;;
2522;SDS011;1272;53.332;9.860;2024-02-26T12:06:57;5.00;;;4.60;;
2522;SDS011;1272;53.332;9.860;2024-02-26T12:12:02;4.43;;;4.03;;
2522;SDS011;1272;53.332;9.860;2024-02-26T12:14:29;5.70;;;5.20;;
2522;SDS011;1272;53.332;9.860;2024-02-26T12:17:04;4.80;;;4.40;;
2522;SDS011;1272;53.332;9.860;2024-02-26T12:19:33;5.90;;;5.40;;
2522;SDS011;1272;53.332;9.860;2024-02-26T12:22:01;5.17;;;4.67;;
2522;SDS011;1272;53.332;9.860;2024-02-26T12:24:27;8.30;;;5.37;;
2522;SDS011;1272;53.332;9.860;2024-02-26T12:26:53;5.60;;;5.10;;
2522;SDS011;1272;53.332;9.860;2024-02-26T12:29:19;6.43;;;5.67;;
2522;SDS011;1272;53.332;9.860;2024-02-26T12:31:45;5.03;;;4.63;;
2522;SDS011;1272;53.332;9.860;2024-02-26T12:34:13;6.37;;;5.80;;
2522;SDS011;1272;53.332;9.860;2024-02-26T12:36:38;6.97;;;5.83;;
2522;SDS011;1272;53.332;9.860;2024-02-26T12:39:05;5.90;;;5.20;;
2522;SDS011;1272;53.332;9.860;2024-02-26T12:41:31;6.03;;;5.40;;
2522;SDS011;1272;53.332;9.860;2024-02-26T12:43:58;5.80;;;5.20;;
2522;SDS011;1272;53.332;9.860;2024-02-26T12:46:24;5.77;;;4.80;;
2522;SDS011;1272;53.332;9.860;2024-02-26T12:48:49;5.30;;;4.80;;
2522;SDS011;1272;53.332;9.860;2024-02-26T12:51:15;5.67;;;5.17;;
2522;SDS011;1272;53.332;9.860;2024-02-26T12:53:43;5.10;;;4.70;;
2522;SDS011;1272;53.332;9.860;2024-02-26T12:56:10;5.00;;;4.60;;
2522;SDS011;1272;53.332;9.860;2024-02-26T12:58:39;5.80;;;5.13;;
2522;SDS011;1272;53.332;9.860;2024-02-26T13:01:06;6.00;;;4.87;;
2522;SDS011;1272;53.332;9.860;2024-02-26T13:03:32;5.70;;;5.20;;
2522;SDS011;1272;53.332;9.860;2024-02-26T13:06:01;5.10;;;4.70;;
2522;SDS011;1272;53.332;9.860;2024-02-26T13:08:27;5.47;;;4.97;;
2522;SDS011;1272;53.332;9.860;2024-02-26T13:10:53;5.40;;;4.80;;
2522;SDS011;1272;53.332;9.860;2024-02-26T13:13:19;4.73;;;4.30;;
2522;SDS011;1272;53.332;9.860;2024-02-26T13:15:45;6.00;;;5.40;;
2522;SDS011;1272;53.332;9.860;2024-02-26T13:18:11;5.77;;;5.20;;
2522;SDS011;1272;53.332;9.860;2024-02-26T13:20:38;6.10;;;5.20;;
2522;SDS011;1272;53.332;9.860;2024-02-26T13:23:08;5.23;;;4.73;;
2522;SDS011;1272;53.332;9.860;2024-02-26T13:25:36;6.83;;;4.93;;
2522;SDS011;1272;53.332;9.860;2024-02-26T13:28:07;5.90;;;4.70;;
2522;SDS011;1272;53.332;9.860;2024-02-26T13:30:34;5.17;;;4.70;;
2522;SDS011;1272;53.332;9.860;2024-02-26T13:33:10;8.87;;;5.33;;
2522;SDS011;1272;53.332;9.860;2024-02-26T13:35:37;6.37;;;5.70;;
2522;SDS011;1272;53.332;9.860;2024-02-26T13:38:04;7.57;;;5.50;;
2522;SDS011;1272;53.332;9.860;2024-02-26T13:40:33;6.90;;;5.73;;
2522;SDS011;1272;53.332;9.860;2024-02-26T13:43:00;8.77;;;5.57;;
2522;SDS011;1272;53.332;9.860;2024-02-26T13:45:25;6.17;;;5.57;;
2522;SDS011;1272;53.332;9.860;2024-02-26T13:47:51;4.90;;;4.50;;
2522;SDS011;1272;53.332;9.860;2024-02-26T13:50:17;6.43;;;4.83;;
2522;SDS011;1272;53.332;9.860;2024-02-26T13:52:46;9.33;;;5.80;;
2522;SDS011;1272;53.332;9.860;2024-02-26T13:55:12;8.30;;;5.60;;
2522;SDS011;1272;53.332;9.860;2024-02-26T13:57:39;5.93;;;5.20;;
2522;SDS011;1272;53.332;9.860;2024-02-26T14:00:05;8.00;;;7.00;;
2522;SDS011;1272;53.332;9.860;2024-02-26T14:02:32;6.93;;;5.20;;
2522;SDS011;1272;53.332;9.860;2024-02-26T14:05:01;7.17;;;6.30;;
2522;SDS011;1272;53.332;9.860;2024-02-26T14:07:29;6.70;;;4.53;;
2522;SDS011;1272;53.332;9.860;2024-02-26T14:09:57;8.67;;;6.40;;
2522;SDS011;1272;53.332;9.860;2024-02-26T14:12:23;8.53;;;5.70;;
2522;SDS011;1272;53.332;9.860;2024-02-26T14:14:49;8.70;;;6.30;;
2522;SDS011;1272;53.332;9.860;2024-02-26T14:17:14;9.10;;;5.07;;
2522;SDS011;1272;53.332;9.860;2024-02-26T14:19:41;5.60;;;5.00;;
2522;SDS011;1272;53.332;9.860;2024-02-26T14:22:12;6.10;;;5.20;;
2522;SDS011;1272;53.332;9.860;2024-02-26T14:24:38;8.53;;;5.80;;
2522;SDS011;1272;53.332;9.860;2024-02-26T14:27:04;5.80;;;5.27;;
2522;SDS011;1272;53.332;9.860;2024-02-26T14:29:32;7.70;;;5.70;;
2522;SDS011;1272;53.332;9.860;2024-02-26T14:31:58;6.23;;;5.47;;
2522;SDS011;1272;53.332;9.860;2024-02-26T14:34:24;12.53;;;5.50;;
2522;SDS011;1272;53.332;9.860;2024-02-26T14:36:50;8.30;;;6.60;;
2522;SDS011;1272;53.332;9.860;2024-02-26T14:39:15;11.67;;;7.63;;
2522;SDS011;1272;53.332;9.860;2024-02-26T14:41:41;10.40;;;7.43;;
2522;SDS011;1272;53.332;9.860;2024-02-26T14:44:07;9.80;;;7.90;;
2522;SDS011;1272;53.332;9.860;2024-02-26T14:46:33;10.70;;;8.60;;
2522;SDS011;1272;53.332;9.860;2024-02-26T14:48:59;8.80;;;7.20;;
2522;SDS011;1272;53.332;9.860;2024-02-26T14:51:25;10.10;;;8.10;;
2522;SDS011;1272;53.332;9.860;2024-02-26T14:53:50;9.83;;;7.17;;
2522;SDS011;1272;53.332;9.860;2024-02-26T14:56:16;10.93;;;7.57;;
2522;SDS011;1272;53.332;9.860;2024-02-26T14:58:42;11.70;;;7.60;;
2522;SDS011;1272;53.332;9.860;2024-02-26T15:01:08;7.87;;;7.07;;
2522;SDS011;1272;53.332;9.860;2024-02-26T15:03:33;10.80;;;8.90;;
2522;SDS011;1272;53.332;9.860;2024-02-26T15:06:00;9.03;;;7.30;;
2522;SDS011;1272;53.332;9.860;2024-02-26T15:08:25;7.80;;;6.80;;
2522;SDS011;1272;53.332;9.860;2024-02-26T15:10:51;9.80;;;7.23;;
2522;SDS011;1272;53.332;9.860;2024-02-26T15:13:17;11.90;;;8.73;;
2522;SDS011;1272;53.332;9.860;2024-02-26T15:15:43;9.23;;;6.77;;
2522;SDS011;1272;53.332;9.860;2024-02-26T15:18:09;11.00;;;9.13;;
2522;SDS011;1272;53.332;9.860;2024-02-26T15:20:39;10.23;;;9.10;;
2522;SDS011;1272;53.332;9.860;2024-02-26T15:23:06;12.33;;;7.60;;